sensor_id;sensor_type;location;lat;lon;timestamp;pressure;altitude;pressure_sealevel;temperature;humidity
50057;BME280;36875;49.468;11.200;2022-08-19T00:01:44;97337.88;;;23.20;63.18
50057;BME280;36875;49.468;11.200;2022-08-19T00:04:13;97342.22;;;23.21;63.09
50057;BME280;36875;49.468;11.200;2022-08-19T00:06:40;97343.38;;;23.20;62.92
50057;BME280;36875;49.468;11.200;2022-08-19T00:09:09;97337.44;;;23.18;63.16
50057;BME280;36875;49.468;11.200;2022-08-19T00:11:35;97323.84;;;23.09;63.21
50057;BME280;36875;49.468;11.200;2022-08-19T00:14:04;97323.16;;;23.13;63.12
50057;BME280;36875;49.468;11.200;2022-08-19T00:16:30;97332.19;;;23.13;63.21
50057;BME280;36875;49.468;11.200;2022-08-19T00:18:57;97334.69;;;23.18;63.04
50057;BME280;36875;49.468;11.200;2022-08-19T00:21:24;97322.22;;;23.08;63.23
50057;BME280;36875;49.468;11.200;2022-08-19T00:23:49;97337.00;;;23.16;63.46
50057;BME280;36875;49.468;11.200;2022-08-19T00:26:16;97338.13;;;23.15;63.25
50057;BME280;36875;49.468;11.200;2022-08-19T00:28:41;97346.34;;;23.15;63.51
50057;BME280;36875;49.468;11.200;2022-08-19T00:31:08;97342.03;;;23.14;63.33
50057;BME280;36875;49.468;11.200;2022-08-19T00:33:34;97337.31;;;23.15;63.58
50057;BME280;36875;49.468;11.200;2022-08-19T00:36:04;97350.59;;;23.13;63.34
50057;BME280;36875;49.468;11.200;2022-08-19T00:38:30;97350.25;;;23.14;63.50
50057;BME280;36875;49.468;11.200;2022-08-19T00:40:56;97346.69;;;23.14;63.64
50057;BME280;36875;49.468;11.200;2022-08-19T00:43:24;97351.41;;;23.13;63.85
50057;BME280;36875;49.468;11.200;2022-08-19T00:45:51;97345.91;;;23.13;63.73
50057;BME280;36875;49.468;11.200;2022-08-19T00:48:18;97337.91;;;23.08;63.46
50057;BME280;36875;49.468;11.200;2022-08-19T00:50:45;97343.84;;;23.10;63.68
50057;BME280;36875;49.468;11.200;2022-08-19T00:53:15;97357.22;;;23.12;63.72
50057;BME280;36875;49.468;11.200;2022-08-19T00:55:44;97364.31;;;23.13;63.81
50057;BME280;36875;49.468;11.200;2022-08-19T00:58:14;97360.75;;;23.12;63.60
50057;BME280;36875;49.468;11.200;2022-08-19T01:00:40;97351.63;;;23.08;64.00
50057;BME280;36875;49.468;11.200;2022-08-19T01:03:08;97345.44;;;23.11;63.74
50057;BME280;36875;49.468;11.200;2022-08-19T01:05:35;97349.34;;;23.10;63.75
50057;BME280;36875;49.468;11.200;2022-08-19T01:08:03;97347.28;;;23.07;63.88
50057;BME280;36875;49.468;11.200;2022-08-19T01:10:35;97346.59;;;23.10;63.69
50057;BME280;36875;49.468;11.200;2022-08-19T01:13:03;97350.50;;;23.09;63.96
50057;BME280;36875;49.468;11.200;2022-08-19T01:15:31;97331.38;;;23.00;63.90
50057;BME280;36875;49.468;11.200;2022-08-19T01:17:59;97338.81;;;23.00;63.60
50057;BME280;36875;49.468;11.200;2022-08-19T01:20:26;97352.78;;;23.07;63.68
50057;BME280;36875;49.468;11.200;2022-08-19T01:22:55;97344.75;;;23.02;63.32
50057;BME280;36875;49.468;11.200;2022-08-19T01:25:24;97354.03;;;23.09;63.63
50057;BME280;36875;49.468;11.200;2022-08-19T01:27:52;97348.78;;;23.04;63.82
50057;BME280;36875;49.468;11.200;2022-08-19T01:30:21;97357.31;;;23.03;63.70
50057;BME280;36875;49.468;11.200;2022-08-19T01:32:48;97353.13;;;23.05;63.83
50057;BME280;36875;49.468;11.200;2022-08-19T01:35:14;97351.50;;;23.04;63.78
50057;BME280;36875;49.468;11.200;2022-08-19T01:37:48;97353.13;;;23.05;63.64
50057;BME280;36875;49.468;11.200;2022-08-19T01:40:16;97349.34;;;22.98;63.70
50057;BME280;36875;49.468;11.200;2022-08-19T01:42:42;97369.94;;;23.04;63.83
50057;BME280;36875;49.468;11.200;2022-08-19T01:45:09;97332.41;;;22.83;63.99
50057;BME280;36875;49.468;11.200;2022-08-19T01:47:35;97357.91;;;22.96;63.89
50057;BME280;36875;49.468;11.200;2022-08-19T01:50:00;97369.09;;;23.03;63.74
50057;BME280;36875;49.468;11.200;2022-08-19T01:52:26;97376.53;;;23.03;63.68
50057;BME280;36875;49.468;11.200;2022-08-19T01:54:52;97381.56;;;23.01;63.22
50057;BME280;36875;49.468;11.200;2022-08-19T01:57:20;97379.63;;;23.01;63.48
50057;BME280;36875;49.468;11.200;2022-08-19T01:59:45;97388.19;;;23.00;63.52
50057;BME280;36875;49.468;11.200;2022-08-19T02:02:11;97386.25;;;23.00;63.87
50057;BME280;36875;49.468;11.200;2022-08-19T02:04:37;97387.03;;;23.01;63.57
50057;BME280;36875;49.468;11.200;2022-08-19T02:07:04;97369.91;;;22.91;64.23
50057;BME280;36875;49.468;11.200;2022-08-19T02:09:30;97377.22;;;23.00;63.72
50057;BME280;36875;49.468;11.200;2022-08-19T02:11:56;97358.47;;;22.89;63.87
50057;BME280;36875;49.468;11.200;2022-08-19T02:14:23;97366.38;;;22.91;63.74
50057;BME280;36875;49.468;11.200;2022-08-19T02:16:49;97402.25;;;22.98;63.47
50057;BME280;36875;49.468;11.200;2022-08-19T02:19:15;97415.19;;;22.98;64.04
50057;BME280;36875;49.468;11.200;2022-08-19T02:21:40;97402.72;;;22.88;64.06
50057;BME280;36875;49.468;11.200;2022-08-19T02:24:06;97409.13;;;22.92;63.93
50057;BME280;36875;49.468;11.200;2022-08-19T02:26:32;97426.16;;;22.98;63.88
50057;BME280;36875;49.468;11.200;2022-08-19T02:28:58;97425.00;;;22.99;63.77
50057;BME280;36875;49.468;11.200;2022-08-19T02:31:27;97421.81;;;22.97;63.91
50057;BME280;36875;49.468;11.200;2022-08-19T02:33:54;97424.09;;;22.95;63.89
50057;BME280;36875;49.468;11.200;2022-08-19T02:36:20;97418.59;;;22.95;63.91
50057;BME280;36875;49.468;11.200;2022-08-19T02:38:46;97421.34;;;22.95;64.04
50057;BME280;36875;49.468;11.200;2022-08-19T02:41:14;97432.31;;;22.95;63.67
50057;BME280;36875;49.468;11.200;2022-08-19T02:43:40;97417.13;;;22.85;63.69
50057;BME280;36875;49.468;11.200;2022-08-19T02:46:12;97435.41;;;22.93;63.98
50057;BME280;36875;49.468;11.200;2022-08-19T02:48:39;97439.66;;;22.90;64.04
50057;BME280;36875;49.468;11.200;2022-08-19T02:51:05;97442.50;;;22.94;64.01
50057;BME280;36875;49.468;11.200;2022-08-19T02:53:31;97426.94;;;22.86;63.79
50057;BME280;36875;49.468;11.200;2022-08-19T02:55:57;97426.38;;;22.93;63.93
50057;BME280;36875;49.468;11.200;2022-08-19T02:58:22;97431.88;;;22.93;63.86
50057;BME280;36875;49.468;11.200;2022-08-19T03:00:50;97426.28;;;22.89;63.64
50057;BME280;36875;49.468;11.200;2022-08-19T03:03:17;97430.25;;;22.91;63.90
50057;BME280;36875;49.468;11.200;2022-08-19T03:05:45;97408.78;;;22.81;63.68
50057;BME280;36875;49.468;11.200;2022-08-19T03:08:12;97426.28;;;22.89;63.99
50057;BME280;36875;49.468;11.200;2022-08-19T03:10:42;97414.38;;;22.85;63.90
50057;BME280;36875;49.468;11.200;2022-08-19T03:13:10;97415.28;;;22.89;63.95
50057;BME280;36875;49.468;11.200;2022-08-19T03:15:39;97402.25;;;22.86;63.83
50057;BME280;36875;49.468;11.200;2022-08-19T03:18:05;97393.69;;;22.87;63.89
50057;BME280;36875;49.468;11.200;2022-08-19T03:20:30;97397.66;;;22.90;63.82
50057;BME280;36875;49.468;11.200;2022-08-19T03:22:57;97388.66;;;22.89;63.88
50057;BME280;36875;49.468;11.200;2022-08-19T03:25:23;97377.91;;;22.84;63.97
50057;BME280;36875;49.468;11.200;2022-08-19T03:27:49;97360.06;;;22.78;63.78
50057;BME280;36875;49.468;11.200;2022-08-19T03:30:15;97375.59;;;22.86;64.04
50057;BME280;36875;49.468;11.200;2022-08-19T03:32:40;97377.22;;;22.87;64.00
50057;BME280;36875;49.468;11.200;2022-08-19T03:35:06;97369.00;;;22.87;63.84
50057;BME280;36875;49.468;11.200;2022-08-19T03:37:32;97370.94;;;22.87;63.78
50057;BME280;36875;49.468;11.200;2022-08-19T03:39:59;97354.81;;;22.85;63.69
50057;BME280;36875;49.468;11.200;2022-08-19T03:42:24;97361.56;;;22.88;63.66
50057;BME280;36875;49.468;11.200;2022-08-19T03:44:52;97374.03;;;22.85;63.60
50057;BME280;36875;49.468;11.200;2022-08-19T03:47:17;97376.31;;;22.83;63.52
50057;BME280;36875;49.468;11.200;2022-08-19T03:49:44;97382.25;;;22.85;63.61
50057;BME280;36875;49.468;11.200;2022-08-19T03:52:09;97379.84;;;22.84;63.60
50057;BME280;36875;49.468;11.200;2022-08-19T03:54:35;97363.50;;;22.75;63.71
50057;BME280;36875;49.468;11.200;2022-08-19T03:57:05;97363.28;;;22.80;63.63
50057;BME280;36875;49.468;11.200;2022-08-19T03:59:34;97363.28;;;22.80;63.69
50057;BME280;36875;49.468;11.200;2022-08-19T04:02:03;97372.41;;;22.84;63.37
50057;BME280;36875;49.468;11.200;2022-08-19T04:04:31;97378.59;;;22.81;63.44
50057;BME280;36875;49.468;11.200;2022-08-19T04:06:56;97372.28;;;22.81;63.62
50057;BME280;36875;49.468;11.200;2022-08-19T04:09:22;97366.47;;;22.82;63.44
50057;BME280;36875;49.468;11.200;2022-08-19T04:11:49;97360.41;;;22.77;63.53
50057;BME280;36875;49.468;11.200;2022-08-19T04:14:18;97360.41;;;22.77;63.29
50057;BME280;36875;49.468;11.200;2022-08-19T04:16:45;97384.53;;;22.83;63.44
50057;BME280;36875;49.468;11.200;2022-08-19T04:19:12;97379.94;;;22.75;63.49
50057;BME280;36875;49.468;11.200;2022-08-19T04:21:38;97398.03;;;22.76;63.57
50057;BME280;36875;49.468;11.200;2022-08-19T04:24:06;97402.84;;;22.79;63.71
50057;BME280;36875;49.468;11.200;2022-08-19T04:26:34;97407.16;;;22.80;63.68
50057;BME280;36875;49.468;11.200;2022-08-19T04:29:03;97410.69;;;22.81;63.42
50057;BME280;36875;49.468;11.200;2022-08-19T04:31:31;97409.91;;;22.80;63.71
50057;BME280;36875;49.468;11.200;2022-08-19T04:34:02;97413.44;;;22.81;63.68
50057;BME280;36875;49.468;11.200;2022-08-19T04:36:30;97419.31;;;22.79;63.78
50057;BME280;36875;49.468;11.200;2022-08-19T04:38:58;97425.56;;;22.80;63.51
50057;BME280;36875;49.468;11.200;2022-08-19T04:41:25;97437.34;;;22.80;63.43
50057;BME280;36875;49.468;11.200;2022-08-19T04:44:10;97438.50;;;22.79;63.60
50057;BME280;36875;49.468;11.200;2022-08-19T04:46:37;97441.25;;;22.79;63.55
50057;BME280;36875;49.468;11.200;2022-08-19T04:49:05;97435.84;;;22.70;63.55
50057;BME280;36875;49.468;11.200;2022-08-19T04:51:32;97427.03;;;22.65;63.55
50057;BME280;36875;49.468;11.200;2022-08-19T04:53:58;97451.41;;;22.79;63.57
50057;BME280;36875;49.468;11.200;2022-08-19T04:56:25;97462.25;;;22.75;63.68
50057;BME280;36875;49.468;11.200;2022-08-19T04:58:53;97465.44;;;22.77;63.67
50057;BME280;36875;49.468;11.200;2022-08-19T05:01:22;97467.06;;;22.78;63.46
50057;BME280;36875;49.468;11.200;2022-08-19T05:03:50;97453.56;;;22.73;63.86
50057;BME280;36875;49.468;11.200;2022-08-19T05:06:18;97465.00;;;22.75;63.54
50057;BME280;36875;49.468;11.200;2022-08-19T05:08:44;97470.47;;;22.75;63.61
50057;BME280;36875;49.468;11.200;2022-08-19T05:11:15;97481.91;;;22.77;63.34
50057;BME280;36875;49.468;11.200;2022-08-19T05:13:41;97490.97;;;22.78;63.48
50057;BME280;36875;49.468;11.200;2022-08-19T05:16:07;97467.94;;;22.58;63.74
50057;BME280;36875;49.468;11.200;2022-08-19T05:18:34;97491.28;;;22.76;63.46
50057;BME280;36875;49.468;11.200;2022-08-19T05:21:20;97489.22;;;22.73;63.86
50057;BME280;36875;49.468;11.200;2022-08-19T05:24:05;97480.88;;;22.69;64.12
50057;BME280;36875;49.468;11.200;2022-08-19T05:26:34;97484.56;;;22.74;63.93
50057;BME280;36875;49.468;11.200;2022-08-19T05:29:00;97472.50;;;22.66;63.83
50057;BME280;36875;49.468;11.200;2022-08-19T05:31:26;97483.84;;;22.77;63.85
50057;BME280;36875;49.468;11.200;2022-08-19T05:33:51;97490.84;;;22.74;63.85
50057;BME280;36875;49.468;11.200;2022-08-19T05:36:18;97473.34;;;22.66;63.68
50057;BME280;36875;49.468;11.200;2022-08-19T05:38:45;97484.66;;;22.77;63.67
50057;BME280;36875;49.468;11.200;2022-08-19T05:41:12;97483.72;;;22.73;63.94
50057;BME280;36875;49.468;11.200;2022-08-19T05:43:38;97483.53;;;22.78;63.64
50057;BME280;36875;49.468;11.200;2022-08-19T05:46:04;97478.47;;;22.68;63.97
50057;BME280;36875;49.468;11.200;2022-08-19T05:48:31;97488.56;;;22.76;63.90
50057;BME280;36875;49.468;11.200;2022-08-19T05:50:57;97481.31;;;22.71;63.83
50057;BME280;36875;49.468;11.200;2022-08-19T05:53:25;97481.13;;;22.77;64.03
50057;BME280;36875;49.468;11.200;2022-08-19T05:55:51;97486.59;;;22.77;64.06
50057;BME280;36875;49.468;11.200;2022-08-19T05:58:16;97487.75;;;22.76;64.00
50057;BME280;36875;49.468;11.200;2022-08-19T06:00:43;97471.84;;;22.69;63.61
50057;BME280;36875;49.468;11.200;2022-08-19T06:03:09;97461.09;;;22.64;64.04
50057;BME280;36875;49.468;11.200;2022-08-19T06:05:35;97475.75;;;22.80;63.98
50057;BME280;36875;49.468;11.200;2022-08-19T06:08:01;97471.88;;;22.81;63.83
50057;BME280;36875;49.468;11.200;2022-08-19T06:10:28;97458.38;;;22.76;64.09
50057;BME280;36875;49.468;11.200;2022-08-19T06:12:55;97464.09;;;22.83;64.17
50057;BME280;36875;49.468;11.200;2022-08-19T06:15:21;97464.91;;;22.84;64.00
50057;BME280;36875;49.468;11.200;2022-08-19T06:17:50;97471.19;;;22.84;63.98
50057;BME280;36875;49.468;11.200;2022-08-19T06:20:16;97461.13;;;22.76;64.10
50057;BME280;36875;49.468;11.200;2022-08-19T06:22:45;97467.75;;;22.87;63.79
50057;BME280;36875;49.468;11.200;2022-08-19T06:25:12;97461.16;;;22.88;63.75
50057;BME280;36875;49.468;11.200;2022-08-19T06:27:40;97459.19;;;22.89;63.46
50057;BME280;36875;49.468;11.200;2022-08-19T06:30:07;97461.59;;;22.90;63.52
50057;BME280;36875;49.468;11.200;2022-08-19T06:32:33;97444.09;;;22.83;63.23
50057;BME280;36875;49.468;11.200;2022-08-19T06:34:58;97477.72;;;22.92;63.44
50057;BME280;36875;49.468;11.200;2022-08-19T06:37:24;97456.88;;;22.79;63.46
50057;BME280;36875;49.468;11.200;2022-08-19T06:39:51;97485.47;;;22.90;63.43
50057;BME280;36875;49.468;11.200;2022-08-19T06:42:16;97481.34;;;22.84;63.42
50057;BME280;36875;49.468;11.200;2022-08-19T06:44:46;97487.63;;;22.84;63.59
50057;BME280;36875;49.468;11.200;2022-08-19T06:47:15;97491.66;;;22.87;63.29
50057;BME280;36875;49.468;11.200;2022-08-19T06:49:41;97476.53;;;22.81;63.16
50057;BME280;36875;49.468;11.200;2022-08-19T06:52:07;97495.53;;;22.86;63.47
50057;BME280;36875;49.468;11.200;2022-08-19T06:54:33;97500.22;;;22.85;63.54
50057;BME280;36875;49.468;11.200;2022-08-19T06:57:00;97501.34;;;22.84;63.26
50057;BME280;36875;49.468;11.200;2022-08-19T06:59:30;97502.50;;;22.83;63.63
50057;BME280;36875;49.468;11.200;2022-08-19T07:02:00;97508.47;;;22.85;63.22
50057;BME280;36875;49.468;11.200;2022-08-19T07:04:28;97511.19;;;22.85;63.60
50057;BME280;36875;49.468;11.200;2022-08-19T07:06:57;97498.84;;;22.79;62.97
50057;BME280;36875;49.468;11.200;2022-08-19T07:09:23;97514.41;;;22.87;63.28
50057;BME280;36875;49.468;11.200;2022-08-19T07:11:51;97512.00;;;22.86;63.19
50057;BME280;36875;49.468;11.200;2022-08-19T07:14:20;97510.41;;;22.85;63.24
50057;BME280;36875;49.468;11.200;2022-08-19T07:16:47;97518.28;;;22.86;63.29
50057;BME280;36875;49.468;11.200;2022-08-19T07:19:15;97519.66;;;22.80;63.33
50057;BME280;36875;49.468;11.200;2022-08-19T07:21:41;97530.63;;;22.80;63.81
50057;BME280;36875;49.468;11.200;2022-08-19T07:24:07;97529.81;;;22.80;63.84
50057;BME280;36875;49.468;11.200;2022-08-19T07:26:41;97528.91;;;22.76;63.24
50057;BME280;36875;49.468;11.200;2022-08-19T07:29:07;97540.47;;;22.81;63.69
50057;BME280;36875;49.468;11.200;2022-08-19T07:31:33;97533.16;;;22.85;63.38
50057;BME280;36875;49.468;11.200;2022-08-19T07:34:03;97534.06;;;22.89;63.26
50057;BME280;36875;49.468;11.200;2022-08-19T07:36:34;97534.53;;;22.91;62.81
50057;BME280;36875;49.468;11.200;2022-08-19T07:39:04;97520.94;;;22.83;63.11
50057;BME280;36875;49.468;11.200;2022-08-19T07:41:30;97526.50;;;22.86;63.08
50057;BME280;36875;49.468;11.200;2022-08-19T07:43:56;97532.81;;;22.87;63.64
50057;BME280;36875;49.468;11.200;2022-08-19T07:46:22;97543.34;;;22.85;63.92
50057;BME280;36875;49.468;11.200;2022-08-19T07:48:49;97540.91;;;22.83;64.21
50057;BME280;36875;49.468;11.200;2022-08-19T07:51:19;97525.25;;;22.84;64.00
50057;BME280;36875;49.468;11.200;2022-08-19T07:53:48;97536.47;;;22.91;63.26
50057;BME280;36875;49.468;11.200;2022-08-19T07:56:16;97529.50;;;22.94;62.58
50057;BME280;36875;49.468;11.200;2022-08-19T07:58:45;97530.78;;;22.96;63.40
50057;BME280;36875;49.468;11.200;2022-08-19T08:01:15;97529.28;;;22.99;63.03
50057;BME280;36875;49.468;11.200;2022-08-19T08:03:41;97520.47;;;22.93;63.38
50057;BME280;36875;49.468;11.200;2022-08-19T08:06:25;97519.69;;;22.93;63.22
50057;BME280;36875;49.468;11.200;2022-08-19T08:09:12;97520.13;;;22.95;63.22
50057;BME280;36875;49.468;11.200;2022-08-19T08:11:51;97516.25;;;22.96;63.20
50057;BME280;36875;49.468;11.200;2022-08-19T08:14:19;97509.28;;;22.98;63.00
50057;BME280;36875;49.468;11.200;2022-08-19T08:16:45;97511.69;;;23.00;62.96
50057;BME280;36875;49.468;11.200;2022-08-19T08:19:12;97512.16;;;23.02;62.77
50057;BME280;36875;49.468;11.200;2022-08-19T08:21:40;97505.50;;;23.03;63.01
50057;BME280;36875;49.468;11.200;2022-08-19T08:24:06;97505.50;;;23.03;62.82
50057;BME280;36875;49.468;11.200;2022-08-19T08:26:33;97502.19;;;22.97;62.58
50057;BME280;36875;49.468;11.200;2022-08-19T08:28:59;97518.75;;;23.01;62.55
50057;BME280;36875;49.468;11.200;2022-08-19T08:31:25;97509.28;;;22.98;62.72
50057;BME280;36875;49.468;11.200;2022-08-19T08:33:50;97498.84;;;22.91;62.89
50057;BME280;36875;49.468;11.200;2022-08-19T08:36:16;97504.69;;;22.90;62.90
50057;BME280;36875;49.468;11.200;2022-08-19T08:38:43;97511.31;;;22.89;63.15
50057;BME280;36875;49.468;11.200;2022-08-19T08:41:18;97518.28;;;22.86;63.10
50057;BME280;36875;49.468;11.200;2022-08-19T08:43:51;97512.00;;;22.86;62.82
50057;BME280;36875;49.468;11.200;2022-08-19T08:46:22;97516.94;;;22.93;62.88
50057;BME280;36875;49.468;11.200;2022-08-19T08:48:55;97520.59;;;22.97;62.79
50057;BME280;36875;49.468;11.200;2022-08-19T08:51:24;97515.09;;;22.97;62.68
50057;BME280;36875;49.468;11.200;2022-08-19T08:53:52;97518.31;;;22.99;62.34
50057;BME280;36875;49.468;11.200;2022-08-19T08:56:19;97521.06;;;22.99;62.42
50057;BME280;36875;49.468;11.200;2022-08-19T08:58:53;97523.47;;;23.00;62.35
50057;BME280;36875;49.468;11.200;2022-08-19T09:01:21;97524.25;;;23.01;62.32
50057;BME280;36875;49.468;11.200;2022-08-19T09:03:47;97519.91;;;23.00;62.11
50057;BME280;36875;49.468;11.200;2022-08-19T09:06:18;97519.91;;;23.00;62.00
50057;BME280;36875;49.468;11.200;2022-08-19T09:08:55;97517.19;;;23.00;62.08
50057;BME280;36875;49.468;11.200;2022-08-19T09:11:34;97520.38;;;23.02;61.94
50057;BME280;36875;49.468;11.200;2022-08-19T09:14:09;97516.34;;;22.99;61.79
50057;BME280;36875;49.468;11.200;2022-08-19T09:16:40;97528.63;;;23.02;61.78
50057;BME280;36875;49.468;11.200;2022-08-19T09:19:07;97522.34;;;23.01;62.07
50057;BME280;36875;49.468;11.200;2022-08-19T09:21:33;97518.91;;;23.04;61.46
50057;BME280;36875;49.468;11.200;2022-08-19T09:24:00;97524.41;;;23.04;61.83
50057;BME280;36875;49.468;11.200;2022-08-19T09:26:26;97524.41;;;23.04;62.41
50057;BME280;36875;49.468;11.200;2022-08-19T09:28:52;97517.91;;;23.09;62.27
50057;BME280;36875;49.468;11.200;2022-08-19T09:31:24;97491.72;;;23.12;61.52
50057;BME280;36875;49.468;11.200;2022-08-19T09:33:50;97500.16;;;23.06;61.37
50057;BME280;36875;49.468;11.200;2022-08-19T09:36:18;97525.69;;;23.19;63.23
50057;BME280;36875;49.468;11.200;2022-08-19T09:38:45;97527.19;;;23.17;64.68
50057;BME280;36875;49.468;11.200;2022-08-19T09:41:12;97525.94;;;23.14;64.29
50057;BME280;36875;49.468;11.200;2022-08-19T09:43:39;97523.50;;;23.13;64.99
50057;BME280;36875;49.468;11.200;2022-08-19T09:46:06;97523.84;;;23.11;65.08
50057;BME280;36875;49.468;11.200;2022-08-19T09:48:34;97493.59;;;22.99;64.50
50057;BME280;36875;49.468;11.200;2022-08-19T09:51:04;97520.31;;;23.11;64.52
50057;BME280;36875;49.468;11.200;2022-08-19T09:53:30;97494.66;;;22.94;64.26
50057;BME280;36875;49.468;11.200;2022-08-19T09:55:55;97519.03;;;23.08;64.30
50057;BME280;36875;49.468;11.200;2022-08-19T09:58:21;97527.59;;;23.06;63.76
50057;BME280;36875;49.468;11.200;2022-08-19T10:00:49;97528.06;;;23.08;64.04
50057;BME280;36875;49.468;11.200;2022-08-19T10:03:15;97540.66;;;23.09;63.78
50057;BME280;36875;49.468;11.200;2022-08-19T10:05:42;97524.59;;;22.99;63.65
50057;BME280;36875;49.468;11.200;2022-08-19T10:08:14;97539.03;;;23.08;63.48
50057;BME280;36875;49.468;11.200;2022-08-19T10:10:40;97527.34;;;22.99;63.54
50057;BME280;36875;49.468;11.200;2022-08-19T10:13:08;97531.22;;;22.98;63.13
50057;BME280;36875;49.468;11.200;2022-08-19T10:15:35;97545.22;;;23.05;63.23
50057;BME280;36875;49.468;11.200;2022-08-19T10:18:01;97537.78;;;23.06;63.08
50057;BME280;36875;49.468;11.200;2022-08-19T10:20:26;97541.00;;;23.08;62.97
50057;BME280;36875;49.468;11.200;2022-08-19T10:22:53;97519.47;;;22.98;62.83
50057;BME280;36875;49.468;11.200;2022-08-19T10:25:19;97541.69;;;23.05;62.63
50057;BME280;36875;49.468;11.200;2022-08-19T10:27:45;97554.38;;;23.09;62.60
50057;BME280;36875;49.468;11.200;2022-08-19T10:30:12;97545.34;;;23.09;62.53
50057;BME280;36875;49.468;11.200;2022-08-19T10:32:38;97554.72;;;23.08;62.29
50057;BME280;36875;49.468;11.200;2022-08-19T10:35:04;97545.56;;;23.04;62.69
50057;BME280;36875;49.468;11.200;2022-08-19T10:37:33;97539.59;;;23.02;62.89
50057;BME280;36875;49.468;11.200;2022-08-19T10:40:00;97542.53;;;22.97;63.28
50057;BME280;36875;49.468;11.200;2022-08-19T10:42:27;97550.78;;;22.97;63.41
50057;BME280;36875;49.468;11.200;2022-08-19T10:44:52;97531.53;;;22.84;63.86
50057;BME280;36875;49.468;11.200;2022-08-19T10:47:18;97547.44;;;22.91;63.87
50057;BME280;36875;49.468;11.200;2022-08-19T10:49:44;97550.66;;;22.93;64.16
50057;BME280;36875;49.468;11.200;2022-08-19T10:52:28;97551.00;;;22.91;63.90
50057;BME280;36875;49.468;11.200;2022-08-19T10:55:02;97543.34;;;22.85;63.87
50057;BME280;36875;49.468;11.200;2022-08-19T10:57:47;97547.31;;;22.87;63.96
50057;BME280;36875;49.468;11.200;2022-08-19T11:00:13;97547.78;;;22.89;63.63
50057;BME280;36875;49.468;11.200;2022-08-19T11:02:39;97546.31;;;22.92;63.20
50057;BME280;36875;49.468;11.200;2022-08-19T11:05:09;97548.69;;;22.94;63.43
50057;BME280;36875;49.468;11.200;2022-08-19T11:07:38;97555.81;;;22.95;63.03
50057;BME280;36875;49.468;11.200;2022-08-19T11:10:09;97557.06;;;22.97;63.46
50057;BME280;36875;49.468;11.200;2022-08-19T11:12:36;97555.94;;;22.98;63.07
50057;BME280;36875;49.468;11.200;2022-08-19T11:15:02;97554.78;;;22.99;63.20
50057;BME280;36875;49.468;11.200;2022-08-19T11:17:27;97553.97;;;22.99;62.83
50057;BME280;36875;49.468;11.200;2022-08-19T11:19:57;97555.59;;;23.00;63.02
50057;BME280;36875;49.468;11.200;2022-08-19T11:22:22;97551.69;;;23.01;63.14
50057;BME280;36875;49.468;11.200;2022-08-19T11:24:48;97552.50;;;23.01;62.98
50057;BME280;36875;49.468;11.200;2022-08-19T11:27:15;97547.81;;;23.02;62.67
50057;BME280;36875;49.468;11.200;2022-08-19T11:29:40;97543.13;;;23.02;62.45
50057;BME280;36875;49.468;11.200;2022-08-19T11:32:08;97547.50;;;23.03;62.49
50057;BME280;36875;49.468;11.200;2022-08-19T11:34:35;97531.91;;;22.95;62.54
50057;BME280;36875;49.468;11.200;2022-08-19T11:37:01;97552.66;;;23.05;62.71
50057;BME280;36875;49.468;11.200;2022-08-19T11:39:30;97542.81;;;23.04;62.62
50057;BME280;36875;49.468;11.200;2022-08-19T11:41:58;97533.47;;;23.05;62.98
50057;BME280;36875;49.468;11.200;2022-08-19T11:44:25;97537.13;;;23.09;63.20
50057;BME280;36875;49.468;11.200;2022-08-19T11:46:51;97538.69;;;23.10;62.65
50057;BME280;36875;49.468;11.200;2022-08-19T11:49:19;97530.19;;;23.03;62.15
50057;BME280;36875;49.468;11.200;2022-08-19T11:51:46;97537.91;;;23.09;62.53
50057;BME280;36875;49.468;11.200;2022-08-19T11:54:14;97532.88;;;23.12;62.33
50057;BME280;36875;49.468;11.200;2022-08-19T11:56:42;97515.22;;;23.00;62.05
50057;BME280;36875;49.468;11.200;2022-08-19T11:59:08;97513.72;;;23.03;62.24
50057;BME280;36875;49.468;11.200;2022-08-19T12:01:36;97533.66;;;23.12;62.02
50057;BME280;36875;49.468;11.200;2022-08-19T12:04:02;97516.16;;;23.04;61.92
50057;BME280;36875;49.468;11.200;2022-08-19T12:06:31;97534.94;;;23.15;62.24
50057;BME280;36875;49.468;11.200;2022-08-19T12:09:01;97534.94;;;23.15;62.10
50057;BME280;36875;49.468;11.200;2022-08-19T12:11:27;97528.31;;;23.16;62.21
50057;BME280;36875;49.468;11.200;2022-08-19T12:13:53;97524.44;;;23.17;61.87
50057;BME280;36875;49.468;11.200;2022-08-19T12:16:21;97514.25;;;23.05;62.32
50057;BME280;36875;49.468;11.200;2022-08-19T12:18:50;97526.03;;;23.18;62.17
50057;BME280;36875;49.468;11.200;2022-08-19T12:21:22;97533.47;;;23.17;62.39
50057;BME280;36875;49.468;11.200;2022-08-19T12:23:48;97526.38;;;23.16;62.10
50057;BME280;36875;49.468;11.200;2022-08-19T12:26:15;97522.94;;;23.19;61.91
50057;BME280;36875;49.468;11.200;2022-08-19T12:28:41;97527.63;;;23.19;62.06
50057;BME280;36875;49.468;11.200;2022-08-19T12:31:07;97532.00;;;23.20;61.73
50057;BME280;36875;49.468;11.200;2022-08-19T12:33:33;97514.47;;;23.12;61.93
50057;BME280;36875;49.468;11.200;2022-08-19T12:36:04;97519.06;;;23.20;61.64
50057;BME280;36875;49.468;11.200;2022-08-19T12:38:31;97516.31;;;23.20;61.97
50057;BME280;36875;49.468;11.200;2022-08-19T12:40:57;97514.38;;;23.21;61.88
50057;BME280;36875;49.468;11.200;2022-08-19T12:43:23;97520.66;;;23.21;61.90
50057;BME280;36875;49.468;11.200;2022-08-19T12:45:49;97512.78;;;23.20;61.65
50057;BME280;36875;49.468;11.200;2022-08-19T12:48:15;97516.78;;;23.22;61.77
50057;BME280;36875;49.468;11.200;2022-08-19T12:50:41;97513.44;;;23.17;61.55
50057;BME280;36875;49.468;11.200;2022-08-19T12:53:08;97523.06;;;23.23;61.49